Pearcot, Washington
Current Conditions -  °F | °C
As of 9:55 AM on Thursday 30 Oct 2014 (Local Time) from KEAT Reporting Station
Light Rain Light Rain  
Wind Chill: 49°   Ceiling: 2100
Heat Index: 49°   Visibility: 4mi
Dew Point: 46°   Wind: 0mph
Humidity: 90%   Direction: NA
Pressure: 30.08"   Gusts: NA
Location:  47.3635°N, 120.348°W
Report Text: KEAT 301655Z AUTO 00000KT 4SM -RA BR SCT003 OVC021 09/08 A3008 RMK AO2 RAE19B28 SLP187 P0001 T00940078
Loading
Personal Weather Stations






























Interactive Weather Map New forecast layout! Learn more

10-Day Weather Forecast

Advertisements
Track Severe Weather on mobile